Time;durP1;ratioP1;P1;durP2;ratioP2;P2;SDS_P1;SDS_P2;PMS_P1;PMS_P2;Temp;Humidity;BMP_temperature;BMP_pressure;BME280_temperature;BME280_humidity;BME280_pressure;Samples;Min_cycle;Max_cycle;Signal;HPM_P1;HPM_P2
2024/01/14 00:00:09;;;;;;;19.40;12.50;;;;;;;1.08;100.00;99179.85;52577;1256;1097881;-82
2024/01/14 00:03:15;;;;;;;19.20;13.00;;;;;;;1.08;100.00;99175.67;52743;1255;1097081;-81
2024/01/14 00:06:02;;;;;;;21.30;13.50;;;;;;;1.09;100.00;99169.44;52623;1260;1097683;-81
2024/01/14 00:08:47;;;;;;;16.90;12.30;;;;;;;1.11;100.00;99171.19;52687;1258;1097190;-81
2024/01/14 00:11:34;;;;;;;16.50;12.00;;;;;;;1.12;100.00;99161.73;52654;1257;1096756;-81
2024/01/14 00:14:29;;;;;;;17.90;12.70;;;;;;;1.11;100.00;99166.61;52684;1260;1097789;-81
2024/01/14 00:17:15;;;;;;;18.60;13.50;;;;;;;1.09;100.00;99164.27;52461;1261;1098016;-80
2024/01/14 00:20:08;;;;;;;21.80;14.00;;;;;;;1.10;100.00;99151.55;52575;1257;1097770;-81
2024/01/14 00:23:12;;;;;;;;;;;;;;;1.09;100.00;99144.98;52741;1260;1097051;-81
2024/01/14 00:25:58;;;;;;;20.10;13.00;;;;;;;1.06;100.00;99135.79;52628;1261;1097293;-81
2024/01/14 00:28:43;;;;;;;21.10;14.60;;;;;;;1.08;100.00;99132.42;52561;1257;1097052;-80
2024/01/14 00:31:29;;;;;;;21.20;14.40;;;;;;;1.08;100.00;99134.20;52745;1258;1097213;-81
2024/01/14 00:34:15;;;;;;;23.50;14.50;;;;;;;1.08;100.00;99124.48;52693;1255;1097121;-80
2024/01/14 00:37:01;;;;;;;18.90;13.80;;;;;;;1.09;100.00;99126.33;52590;1263;1097118;-81
2024/01/14 00:39:48;;;;;;;18.40;13.50;;;;;;;1.10;100.00;99124.45;52661;1257;1096987;-81
2024/01/14 00:42:34;;;;;;;18.80;13.30;;;;;;;1.11;100.00;99124.58;52623;1260;1097616;-81
2024/01/14 00:45:19;;;;;;;18.30;12.10;;;;;;;1.12;100.00;99117.80;52660;1257;1097394;-79
2024/01/14 00:48:05;;;;;;;17.60;13.70;;;;;;;1.13;100.00;99119.06;52661;1263;1097517;-81
2024/01/14 00:50:51;;;;;;;21.00;14.80;;;;;;;1.13;100.00;99116.95;52532;1260;1097004;-81
2024/01/14 00:53:36;;;;;;;22.20;15.60;;;;;;;1.13;100.00;99114.11;52555;1260;1096917;-80
2024/01/14 00:56:22;;;;;;;15.40;12.00;;;;;;;1.15;100.00;99105.34;52412;1277;1097372;-81
2024/01/14 00:59:08;;;;;;;19.30;12.70;;;;;;;1.17;100.00;99099.31;52467;1260;1097874;-80
2024/01/14 01:01:54;;;;;;;21.00;13.80;;;;;;;1.19;100.00;99105.54;52433;1256;1096745;-80
2024/01/14 01:04:40;;;;;;;23.30;16.40;;;;;;;1.21;100.00;99103.17;52382;1260;1097597;-80
2024/01/14 01:07:26;;;;;;;19.90;13.60;;;;;;;1.24;100.00;99091.53;52659;1257;1097306;-81
2024/01/14 01:10:12;;;;;;;18.90;12.80;;;;;;;1.25;100.00;99088.54;52571;1260;1097069;-81
2024/01/14 01:12:58;;;;;;;17.40;12.60;;;;;;;1.29;100.00;99081.13;52494;1260;1097367;-80
2024/01/14 01:15:43;;;;;;;18.00;12.40;;;;;;;1.31;100.00;99075.10;52573;1257;1097587;-81
2024/01/14 01:18:29;;;;;;;17.90;13.60;;;;;;;1.32;100.00;99071.50;52615;1263;1097088;-81
2024/01/14 01:21:22;;;;;;;17.10;12.50;;;;;;;1.33;100.00;99057.21;52540;1260;1097139;-80
2024/01/14 01:24:11;;;;;;;20.50;13.50;;;;;;;1.35;100.00;99054.95;52492;1280;1097580;-80
2024/01/14 01:26:58;;;;;;;16.70;12.20;;;;;;;1.37;100.00;99047.73;52650;1260;1098036;-82
2024/01/14 01:29:45;;;;;;;16.40;12.20;;;;;;;1.36;100.00;99038.63;52606;1257;1097523;-81
2024/01/14 01:32:31;;;;;;;17.60;12.10;;;;;;;1.37;100.00;99038.00;52501;1260;1096925;-81
2024/01/14 01:35:17;;;;;;;18.50;13.60;;;;;;;1.37;100.00;99027.77;52487;1257;1097572;-81
2024/01/14 01:38:02;;;;;;;17.10;12.20;;;;;;;1.37;100.00;99031.35;52567;1276;1096998;-81
2024/01/14 01:40:48;;;;;;;19.30;12.70;;;;;;;1.37;100.00;99021.30;52710;1261;1097371;-80
2024/01/14 01:43:34;;;;;;;16.50;12.10;;;;;;;1.37;100.00;99018.64;52564;1261;1097124;-80
2024/01/14 01:46:19;;;;;;;16.80;12.50;;;;;;;1.36;100.00;99012.98;52503;1260;1097645;-80
2024/01/14 01:49:05;;;;;;;14.30;12.00;;;;;;;1.37;100.00;99008.09;52654;1257;1098040;-80
2024/01/14 01:51:51;;;;;;;15.10;11.60;;;;;;;1.38;100.00;99008.90;52654;1257;1097487;-80
2024/01/14 01:54:45;;;;;;;16.30;12.20;;;;;;;1.36;100.00;99004.49;52568;1260;1097607;-81
2024/01/14 01:57:33;;;;;;;18.20;11.80;;;;;;;1.37;100.00;99004.77;53043;1256;1096732;-80
2024/01/14 02:00:19;;;;;;;15.20;11.30;;;;;;;1.37;100.00;98995.81;52591;1257;1097207;-80
2024/01/14 02:03:05;;;;;;;14.30;11.70;;;;;;;1.38;100.00;98993.12;52625;1255;1097962;-81
2024/01/14 02:05:52;;;;;;;14.30;11.70;;;;;;;1.38;100.00;98997.80;52620;1258;1097718;-81
2024/01/14 02:08:38;;;;;;;16.20;12.50;;;;;;;1.39;100.00;98992.25;52614;1255;1097506;-80
2024/01/14 02:11:24;;;;;;;18.10;13.20;;;;;;;1.40;100.00;98993.84;52516;1257;1097638;-80
2024/01/14 02:14:10;;;;;;;15.10;11.70;;;;;;;1.41;100.00;98984.80;52738;1257;1097467;-81
2024/01/14 02:16:56;;;;;;;17.90;13.50;;;;;;;1.42;100.00;98987.61;52709;1258;1096933;-81
2024/01/14 02:19:42;;;;;;;17.70;12.90;;;;;;;1.44;100.00;98973.09;52656;1260;1096670;-80
2024/01/14 02:22:31;;;;;;;16.90;12.50;;;;;;;1.45;100.00;98980.70;52661;1260;1097355;-80
2024/01/14 02:25:16;;;;;;;13.20;11.00;;;;;;;1.45;100.00;98978.19;52732;1257;1096906;-80
2024/01/14 02:28:02;;;;;;;18.30;11.30;;;;;;;1.47;100.00;98972.59;52707;1260;1097777;-81
2024/01/14 02:30:48;;;;;;;14.90;10.50;;;;;;;1.48;100.00;98971.73;52545;1260;1096955;-82
2024/01/14 02:33:33;;;;;;;15.00;10.50;;;;;;;1.49;100.00;98965.95;52610;1260;1098089;-81
2024/01/14 02:36:19;;;;;;;14.20;10.70;;;;;;;1.50;100.00;98966.88;52669;1261;1097767;-81
2024/01/14 02:39:05;;;;;;;15.40;10.70;;;;;;;1.53;100.00;98961.27;52607;1257;1096722;-81
2024/01/14 02:41:51;;;;;;;15.90;11.00;;;;;;;1.54;100.00;98964.02;52570;1260;1096908;-81
2024/01/14 02:44:36;;;;;;;16.60;11.50;;;;;;;1.53;100.00;98960.90;52572;1257;1097085;-81
2024/01/14 02:47:22;;;;;;;14.30;10.80;;;;;;;1.54;100.00;98963.08;52733;1256;1099414;-82
2024/01/14 02:50:08;;;;;;;16.30;10.90;;;;;;;1.54;100.00;98957.27;52640;1260;1096739;-80
2024/01/14 02:52:53;;;;;;;16.60;11.80;;;;;;;1.55;100.00;98950.21;52531;1260;1097364;-80
2024/01/14 02:55:39;;;;;;;13.70;10.60;;;;;;;1.55;100.00;98950.50;52689;1258;1097331;-82
2024/01/14 02:58:25;;;;;;;16.00;11.40;;;;;;;1.55;100.00;98954.72;52423;1261;1096735;-81
2024/01/14 03:01:11;;;;;;;18.40;11.50;;;;;;;1.56;100.00;98943.05;52500;1261;1096796;-81
2024/01/14 03:03:56;;;;;;;15.60;11.40;;;;;;;1.56;100.00;98943.09;52728;1260;1096599;-81
2024/01/14 03:06:42;;;;;;;15.90;10.50;;;;;;;1.57;100.00;98942.61;52624;1260;1097421;-81
2024/01/14 03:09:28;;;;;;;12.20;9.80;;;;;;;1.58;100.00;98934.91;52662;1260;1097364;-82
2024/01/14 03:12:13;;;;;;;14.30;10.20;;;;;;;1.57;100.00;98930.85;52572;1255;1097650;-81
2024/01/14 03:14:59;;;;;;;11.70;9.00;;;;;;;1.58;100.00;98929.08;52720;1257;1096978;-80
2024/01/14 03:17:44;;;;;;;12.80;9.80;;;;;;;1.58;100.00;98922.45;52471;1257;1097738;-79
2024/01/14 03:20:30;;;;;;;10.50;9.10;;;;;;;1.58;100.00;98921.88;52355;1257;1097546;-80
2024/01/14 03:23:16;;;;;;;13.50;9.80;;;;;;;1.57;100.00;98920.83;52315;1260;1097235;-80
2024/01/14 03:26:02;;;;;;;16.20;10.60;;;;;;;1.56;100.00;98913.27;52338;1260;1099526;-80
2024/01/14 03:28:48;;;;;;;12.20;9.90;;;;;;;1.55;100.00;98915.21;52288;1260;1098575;-79
2024/01/14 03:31:33;;;;;;;12.80;10.60;;;;;;;1.56;100.00;98910.12;52274;1260;1097620;-79
2024/01/14 03:34:19;;;;;;;12.20;9.60;;;;;;;1.56;100.00;98914.20;52157;1263;1096896;-79
2024/01/14 03:37:05;;;;;;;12.90;10.00;;;;;;;1.56;100.00;98907.67;52291;1260;1098417;-80
2024/01/14 03:39:51;;;;;;;18.90;12.10;;;;;;;1.54;100.00;98907.13;52268;1260;1097364;-79
2024/01/14 03:42:36;;;;;;;13.20;9.60;;;;;;;1.54;100.00;98902.24;52312;1261;1096704;-80
2024/01/14 03:45:22;;;;;;;13.00;9.50;;;;;;;1.54;100.00;98900.80;52656;1260;1096905;-80
2024/01/14 03:48:07;;;;;;;11.40;8.80;;;;;;;1.55;100.00;98892.89;52336;1261;1097448;-81
2024/01/14 03:50:53;;;;;;;12.80;8.20;;;;;;;1.54;100.00;98889.39;52320;1261;1097666;-80
2024/01/14 03:53:39;;;;;;;12.10;8.40;;;;;;;1.54;100.00;98892.38;52751;1255;1097702;-80
2024/01/14 03:56:25;;;;;;;13.10;8.00;;;;;;;1.55;100.00;98889.80;52754;1256;1097150;-80
2024/01/14 03:59:11;;;;;;;12.70;9.10;;;;;;;1.56;100.00;98891.65;52479;1260;1097484;-79
2024/01/14 04:01:57;;;;;;;10.90;8.50;;;;;;;1.57;100.00;98888.83;52381;1256;1097881;-80
2024/01/14 04:04:42;;;;;;;11.00;8.00;;;;;;;1.59;100.00;98892.36;52374;1259;1097105;-80
2024/01/14 04:07:28;;;;;;;11.30;7.40;;;;;;;1.61;100.00;98891.50;52357;1260;1097373;-80
2024/01/14 04:10:14;;;;;;;9.40;7.10;;;;;;;1.63;100.00;98890.42;52450;1257;1097195;-79
2024/01/14 04:12:59;;;;;;;12.60;8.00;;;;;;;1.63;100.00;98896.71;52285;1258;1097277;-79
2024/01/14 04:15:45;;;;;;;10.80;7.90;;;;;;;1.64;100.00;98893.11;52144;1261;1097419;-80
2024/01/14 04:18:31;;;;;;;10.90;7.80;;;;;;;1.64;100.00;98891.44;52499;1255;1097620;-80
2024/01/14 04:21:23;;;;;;;9.10;7.50;;;;;;;1.65;100.00;98896.16;52335;1257;1097480;-80
2024/01/14 04:24:09;;;;;;;13.30;8.50;;;;;;;1.64;100.00;98893.08;52391;1260;1097325;-79
2024/01/14 04:26:55;;;;;;;10.70;8.80;;;;;;;1.63;100.00;98895.48;52391;1258;1097555;-80
2024/01/14 04:29:41;;;;;;;9.00;7.60;;;;;;;1.63;100.00;98887.92;52361;1260;1097419;-80
2024/01/14 04:32:27;;;;;;;10.90;8.20;;;;;;;1.62;100.00;98884.02;52425;1257;1096948;-79
2024/01/14 04:35:12;;;;;;;9.40;8.50;;;;;;;1.62;100.00;98879.77;52399;1258;1097021;-80
2024/01/14 04:37:58;;;;;;;11.90;8.70;;;;;;;1.61;100.00;98877.94;52241;1276;1097289;-80
2024/01/14 04:40:44;;;;;;;13.60;10.20;;;;;;;1.58;100.00;98875.08;52358;1261;1097142;-80
2024/01/14 04:43:30;;;;;;;11.40;9.10;;;;;;;1.57;100.00;98874.52;52116;1260;1097468;-79
2024/01/14 04:46:16;;;;;;;14.00;10.10;;;;;;;1.55;100.00;98875.27;52264;1256;1096852;-80
2024/01/14 04:49:01;;;;;;;12.90;10.30;;;;;;;1.54;100.00;98876.55;52416;1260;1097631;-80
2024/01/14 04:51:47;;;;;;;14.70;10.10;;;;;;;1.55;100.00;98874.34;52396;1264;1098087;-79
2024/01/14 04:54:33;;;;;;;13.30;10.00;;;;;;;1.55;100.00;98875.23;52280;1256;1097825;-79
2024/01/14 04:57:19;;;;;;;12.20;10.00;;;;;;;1.54;100.00;98869.75;52341;1260;1098264;-80
2024/01/14 05:00:05;;;;;;;13.20;10.40;;;;;;;1.53;100.00;98860.16;52299;1255;1097932;-80
2024/01/14 05:02:51;;;;;;;12.90;9.70;;;;;;;1.53;100.00;98861.69;52369;1260;1096826;-80
2024/01/14 05:05:37;;;;;;;11.70;8.70;;;;;;;1.52;100.00;98858.10;52255;1255;1097208;-80
2024/01/14 05:08:22;;;;;;;15.10;9.90;;;;;;;1.52;100.00;98855.00;52598;1260;1097252;-80
2024/01/14 05:11:09;;;;;;;13.40;9.80;;;;;;;1.53;100.00;98858.70;52667;1260;1097388;-81
2024/01/14 05:13:55;;;;;;;11.10;9.00;;;;;;;1.53;100.00;98849.02;52475;1257;1097516;-79
2024/01/14 05:16:41;;;;;;;11.10;9.00;;;;;;;1.55;100.00;98847.66;52570;1258;1097311;-80
2024/01/14 05:19:27;;;;;;;11.60;8.70;;;;;;;1.57;100.00;98850.06;52337;1259;1097458;-80
2024/01/14 05:22:13;;;;;;;10.30;8.80;;;;;;;1.57;100.00;98842.64;52425;1261;1097739;-79
2024/01/14 05:24:59;;;;;;;9.90;8.20;;;;;;;1.57;100.00;98842.67;52532;1255;1096796;-80
2024/01/14 05:27:45;;;;;;;11.30;8.90;;;;;;;1.58;100.00;98839.27;52174;1260;1097377;-79
2024/01/14 05:30:31;;;;;;;11.10;8.10;;;;;;;1.57;100.00;98841.02;51970;1260;1096805;-80
2024/01/14 05:33:17;;;;;;;8.20;7.20;;;;;;;1.57;100.00;98845.23;52385;1261;1096619;-79
2024/01/14 05:36:03;;;;;;;9.10;7.60;;;;;;;1.59;100.00;98843.19;52389;1261;1097238;-79
2024/01/14 05:38:48;;;;;;;10.00;7.80;;;;;;;1.59;100.00;98840.66;52233;1260;1098095;-80
2024/01/14 05:41:34;;;;;;;9.00;7.30;;;;;;;1.59;100.00;98841.93;52379;1258;1097475;-79
2024/01/14 05:44:20;;;;;;;12.80;8.20;;;;;;;1.59;100.00;98839.26;52372;1260;1097336;-80
2024/01/14 05:47:05;;;;;;;10.10;7.40;;;;;;;1.60;100.00;98843.84;52307;1261;1097498;-81
2024/01/14 05:49:51;;;;;;;13.60;8.10;;;;;;;1.61;100.00;98843.93;52318;1260;1097486;-80
2024/01/14 05:52:37;;;;;;;9.30;7.70;;;;;;;1.60;100.00;98841.23;52257;1261;1097151;-80
2024/01/14 05:55:23;;;;;;;9.20;7.80;;;;;;;1.60;100.00;98835.09;52364;1261;1096698;-80
2024/01/14 05:58:08;;;;;;;8.40;7.50;;;;;;;1.60;100.00;98834.27;52357;1261;1097680;-80
2024/01/14 06:00:54;;;;;;;9.20;7.20;;;;;;;1.59;100.00;98834.34;52741;1256;1097056;-80
2024/01/14 06:03:40;;;;;;;10.30;8.30;;;;;;;1.59;100.00;98835.20;52509;1260;1096886;-79
2024/01/14 06:06:25;;;;;;;9.30;8.10;;;;;;;1.58;100.00;98839.69;52326;1267;1097907;-80
2024/01/14 06:09:11;;;;;;;10.50;7.90;;;;;;;1.57;100.00;98837.48;52395;1273;1097417;-80
2024/01/14 06:11:57;;;;;;;10.60;7.60;;;;;;;1.58;100.00;98837.09;52655;1258;1096524;-80
2024/01/14 06:14:43;;;;;;;10.20;7.20;;;;;;;1.56;100.00;98837.78;52326;1261;1097220;-80
2024/01/14 06:17:29;;;;;;;10.90;8.80;;;;;;;1.55;100.00;98838.06;52530;1261;1098173;-80
2024/01/14 06:20:15;;;;;;;10.00;7.50;;;;;;;1.54;100.00;98837.02;52438;1261;1098216;-79
2024/01/14 06:23:01;;;;;;;10.90;8.20;;;;;;;1.54;100.00;98843.67;52641;1261;1097870;-80
2024/01/14 06:25:46;;;;;;;10.70;8.00;;;;;;;1.54;100.00;98843.01;52553;1261;1098152;-80
2024/01/14 06:28:32;;;;;;;8.90;7.80;;;;;;;1.53;100.00;98838.00;52644;1260;1097010;-80
2024/01/14 06:31:18;;;;;;;10.90;8.20;;;;;;;1.51;100.00;98836.13;52494;1258;1098709;-80
2024/01/14 06:34:06;;;;;;;9.20;8.20;;;;;;;1.50;100.00;98835.20;52605;1255;1097326;-81
2024/01/14 06:36:52;;;;;;;9.90;8.90;;;;;;;1.50;100.00;98839.56;52324;1261;1097128;-81
2024/01/14 06:39:38;;;;;;;9.90;8.50;;;;;;;1.50;100.00;98838.35;52356;1256;1097114;-80
2024/01/14 06:42:24;;;;;;;10.80;8.00;;;;;;;1.49;100.00;98840.23;52513;1261;1097083;-80
2024/01/14 06:45:12;;;;;;;9.30;7.80;;;;;;;1.49;100.00;98844.81;52648;1260;1097398;-80
2024/01/14 06:47:57;;;;;;;11.70;7.90;;;;;;;1.47;100.00;98841.98;52693;1255;1096652;-81
2024/01/14 06:50:43;;;;;;;10.20;8.00;;;;;;;1.46;100.00;98841.80;52619;1255;1097281;-80
2024/01/14 06:53:29;;;;;;;9.90;7.40;;;;;;;1.45;100.00;98843.80;52204;1259;1096994;-78
2024/01/14 06:56:16;;;;;;;11.90;8.60;;;;;;;1.46;100.00;98848.64;52324;1258;1096874;-80
2024/01/14 06:59:02;;;;;;;12.70;8.00;;;;;;;1.46;100.00;98851.76;52581;1257;1096642;-80
2024/01/14 07:01:48;;;;;;;12.60;8.20;;;;;;;1.48;100.00;98850.02;52680;1257;1096824;-80
2024/01/14 07:04:34;;;;;;;11.60;8.10;;;;;;;1.47;100.00;98847.80;52716;1258;1097176;-80
2024/01/14 07:07:20;;;;;;;11.20;8.70;;;;;;;1.48;100.00;98851.86;52659;1256;1096911;-80
2024/01/14 07:10:07;;;;;;;10.00;7.80;;;;;;;1.46;100.00;98853.92;52271;1260;1098045;-80
2024/01/14 07:12:53;;;;;;;12.60;8.10;;;;;;;1.46;100.00;98853.56;52212;1261;1097177;-80
2024/01/14 07:15:39;;;;;;;13.10;8.40;;;;;;;1.46;100.00;98843.89;52672;1256;1096642;-80
2024/01/14 07:18:24;;;;;;;12.10;8.20;;;;;;;1.47;100.00;98848.52;52550;1256;1096868;-80
2024/01/14 07:21:10;;;;;;;11.30;7.60;;;;;;;1.46;100.00;98844.16;52334;1261;1097473;-80
2024/01/14 07:23:57;;;;;;;11.90;7.40;;;;;;;1.45;100.00;98851.15;52207;1262;1096877;-79
2024/01/14 07:26:43;;;;;;;9.30;7.30;;;;;;;1.46;100.00;98848.70;52267;1261;1097473;-81
2024/01/14 07:29:29;;;;;;;9.30;6.80;;;;;;;1.46;100.00;98853.92;52365;1258;1097104;-80
2024/01/14 07:32:15;;;;;;;18.40;7.90;;;;;;;1.45;100.00;98850.45;52486;1261;1098625;-81
2024/01/14 07:35:00;;;;;;;11.60;6.70;;;;;;;1.45;100.00;98854.92;52388;1261;1098152;-80
2024/01/14 07:37:46;;;;;;;11.20;7.80;;;;;;;1.43;100.00;98850.73;52655;1257;1097403;-81
2024/01/14 07:40:32;;;;;;;11.50;9.40;;;;;;;1.42;100.00;98854.73;52329;1255;1097708;-79
2024/01/14 07:43:18;;;;;;;17.30;11.30;;;;;;;1.41;100.00;98846.08;52240;1261;1097064;-80
2024/01/14 07:46:05;;;;;;;14.20;10.50;;;;;;;1.42;100.00;98846.80;52330;1258;1098610;-80
2024/01/14 07:48:51;;;;;;;11.50;9.00;;;;;;;1.43;100.00;98852.17;52584;1261;1097390;-80
2024/01/14 07:51:36;;;;;;;23.40;14.30;;;;;;;1.43;100.00;98855.85;52350;1261;1098031;-79
2024/01/14 07:54:22;;;;;;;15.70;12.20;;;;;;;1.42;100.00;98854.54;51950;1260;1097349;-80
2024/01/14 07:57:08;;;;;;;18.60;14.90;;;;;;;1.41;100.00;98858.49;52287;1271;1096841;-79
2024/01/14 07:59:54;;;;;;;18.40;14.00;;;;;;;1.41;100.00;98855.41;52254;1261;1098312;-80
2024/01/14 08:02:40;;;;;;;14.20;12.20;;;;;;;1.40;100.00;98860.21;52257;1260;1097763;-79
2024/01/14 08:05:25;;;;;;;17.10;14.40;;;;;;;1.39;100.00;98854.85;52115;1261;1097262;-79
2024/01/14 08:08:12;;;;;;;22.90;18.30;;;;;;;1.40;100.00;98857.81;52087;1261;1097066;-79
2024/01/14 08:10:57;;;;;;;20.60;17.20;;;;;;;1.39;100.00;98860.69;52436;1260;1096554;-80
2024/01/14 08:13:43;;;;;;;17.00;12.90;;;;;;;1.39;100.00;98858.21;52272;1261;1097269;-80
2024/01/14 08:16:29;;;;;;;13.70;11.00;;;;;;;1.40;100.00;98858.27;52253;1258;1097420;-79
2024/01/14 08:19:14;;;;;;;13.00;9.80;;;;;;;1.40;100.00;98860.34;52294;1264;1097082;-79
2024/01/14 08:22:00;;;;;;;14.00;9.40;;;;;;;1.41;100.00;98854.64;52377;1259;1097378;-80
2024/01/14 08:24:45;;;;;;;14.60;10.00;;;;;;;1.38;100.00;98859.73;52278;1260;1097293;-80
2024/01/14 08:27:32;;;;;;;12.70;9.30;;;;;;;1.37;100.00;98862.35;52326;1261;1097848;-80
2024/01/14 08:30:18;;;;;;;17.40;11.40;;;;;;;1.36;100.00;98865.95;52407;1255;1097057;-79
2024/01/14 08:33:04;;;;;;;14.90;11.20;;;;;;;1.37;100.00;98866.50;52323;1260;1097612;-80
2024/01/14 08:35:50;;;;;;;14.20;10.60;;;;;;;1.40;100.00;98867.25;52355;1259;1096821;-80
2024/01/14 08:38:35;;;;;;;13.90;10.40;;;;;;;1.42;100.00;98867.69;52291;1260;1097034;-80
2024/01/14 08:41:24;;;;;;;14.90;11.00;;;;;;;1.42;100.00;98866.84;52439;1261;1096926;-80
2024/01/14 08:44:10;;;;;;;14.20;10.30;;;;;;;1.42;100.00;98870.08;52312;1260;1097736;-80
2024/01/14 08:46:57;;;;;;;15.40;10.60;;;;;;;1.40;100.00;98879.02;52427;1260;1098036;-79
2024/01/14 08:49:43;;;;;;;21.10;11.80;;;;;;;1.40;100.00;98878.27;52199;1261;1096989;-80
2024/01/14 08:52:28;;;;;;;14.80;10.50;;;;;;;1.42;100.00;98883.56;52308;1261;1097282;-80
2024/01/14 08:55:14;;;;;;;13.00;9.00;;;;;;;1.42;100.00;98881.95;52286;1261;1097089;-79
2024/01/14 08:58:00;;;;;;;13.90;8.90;;;;;;;1.46;100.00;98882.14;52291;1258;1097069;-80
2024/01/14 09:00:46;;;;;;;11.00;8.50;;;;;;;1.48;100.00;98877.65;52393;1261;1096640;-79
2024/01/14 09:03:31;;;;;;;12.00;7.30;;;;;;;1.50;100.00;98884.52;52267;1255;1098435;-79
2024/01/14 09:06:17;;;;;;;17.60;8.00;;;;;;;1.51;100.00;98886.23;52189;1261;1098037;-80
2024/01/14 09:09:03;;;;;;;11.10;7.10;;;;;;;1.50;100.00;98885.48;52317;1261;1097411;-80
2024/01/14 09:11:49;;;;;;;11.20;7.00;;;;;;;1.50;100.00;98887.95;52211;1261;1097295;-80
2024/01/14 09:14:34;;;;;;;15.00;10.00;;;;;;;1.52;100.00;98894.63;52267;1260;1097408;-79
2024/01/14 09:17:20;;;;;;;14.50;8.70;;;;;;;1.52;100.00;98896.13;52189;1261;1097524;-79
2024/01/14 09:20:06;;;;;;;19.10;11.70;;;;;;;1.54;100.00;98899.10;52135;1260;1097410;-79
2024/01/14 09:22:52;;;;;;;18.10;11.30;;;;;;;1.52;100.00;98901.02;51929;1258;1099498;-80
2024/01/14 09:25:38;;;;;;;22.80;12.20;;;;;;;1.50;100.00;98900.61;52212;1261;1098062;-80
2024/01/14 09:28:26;;;;;;;18.10;10.30;;;;;;;1.49;100.00;98901.61;52430;1258;1097526;-80
2024/01/14 09:31:12;;;;;;;20.40;9.40;;;;;;;1.48;100.00;98905.77;52310;1258;1097863;-78
2024/01/14 09:33:58;;;;;;;16.50;9.60;;;;;;;1.49;100.00;98914.27;52231;1261;1097356;-78
2024/01/14 09:36:44;;;;;;;17.00;9.70;;;;;;;1.48;100.00;98908.16;52226;1256;1097454;-79
2024/01/14 09:39:30;;;;;;;20.30;11.20;;;;;;;1.48;100.00;98908.91;52295;1261;1098058;-79
2024/01/14 09:42:24;;;;;;;16.90;11.00;;;;;;;1.48;100.00;98909.65;52305;1262;1097352;-79
2024/01/14 09:45:09;;;;;;;21.50;15.70;;;;;;;1.47;100.00;98908.14;52409;1261;1096751;-79
2024/01/14 09:47:57;;;;;;;18.50;14.50;;;;;;;1.45;100.00;98909.02;52392;1260;1097026;-79
2024/01/14 09:50:42;;;;;;;18.00;11.80;;;;;;;1.45;100.00;98911.38;52555;1260;1097164;-80
2024/01/14 09:53:28;;;;;;;19.80;12.00;;;;;;;1.45;100.00;98902.45;52441;1260;1097207;-80
2024/01/14 09:56:14;;;;;;;17.50;10.20;;;;;;;1.45;100.00;98899.57;52542;1256;1097376;-79
2024/01/14 09:59:01;;;;;;;18.60;11.10;;;;;;;1.45;100.00;98899.54;52159;1259;1097724;-79
2024/01/14 10:01:50;;;;;;;15.30;10.90;;;;;;;1.46;100.00;98906.25;52033;1259;1096785;-79
2024/01/14 10:04:40;;;;;;;23.00;11.30;;;;;;;1.46;100.00;98904.79;52227;1260;1097813;-79
2024/01/14 10:07:26;;;;;;;20.30;11.80;;;;;;;1.45;100.00;98901.89;52353;1255;1097716;-79
2024/01/14 10:10:12;;;;;;;18.30;11.30;;;;;;;1.44;100.00;98901.94;52280;1260;1098320;-79
2024/01/14 10:12:58;;;;;;;22.40;14.90;;;;;;;1.44;100.00;98904.96;52299;1260;1097048;-80
2024/01/14 10:15:44;;;;;;;18.20;12.10;;;;;;;1.47;100.00;98901.89;52144;1260;1097428;-79
2024/01/14 10:18:30;;;;;;;19.00;10.50;;;;;;;1.50;100.00;98901.63;52123;1261;1096626;-79
2024/01/14 10:21:15;;;;;;;17.60;10.80;;;;;;;1.50;100.00;98898.79;52181;1261;1098107;-79
2024/01/14 10:24:02;;;;;;;17.70;10.40;;;;;;;1.51;100.00;98897.30;52147;1260;1097326;-79
2024/01/14 10:26:52;;;;;;;20.50;10.30;;;;;;;1.51;100.00;98899.29;52232;1272;1097259;-79
2024/01/14 10:29:38;;;;;;;18.50;10.40;;;;;;;1.50;100.00;98895.87;52188;1261;1096872;-79
2024/01/14 10:32:23;;;;;;;20.90;9.60;;;;;;;1.48;100.00;98898.84;52262;1257;1097046;-79
2024/01/14 10:35:13;;;;;;;17.70;11.70;;;;;;;1.48;100.00;98898.35;52241;1261;1096824;-81
2024/01/14 10:37:58;;;;;;;20.30;11.30;;;;;;;1.48;100.00;98895.05;52639;1260;1097285;-81
2024/01/14 10:40:44;;;;;;;21.40;11.90;;;;;;;1.47;100.00;98898.98;52470;1258;1097832;-81
2024/01/14 10:43:32;;;;;;;20.80;12.10;;;;;;;1.49;100.00;98898.48;52469;1263;1097723;-81
2024/01/14 10:46:18;;;;;;;20.20;10.90;;;;;;;1.49;100.00;98899.34;52674;1261;1097278;-80
2024/01/14 10:49:08;;;;;;;25.00;12.20;;;;;;;1.50;100.00;98898.16;52295;1268;1098261;-80
2024/01/14 10:51:58;;;;;;;18.80;11.10;;;;;;;1.50;100.00;98895.96;52262;1261;1096515;-80
2024/01/14 10:54:49;;;;;;;17.70;10.70;;;;;;;1.51;100.00;98894.49;52313;1261;1097437;-80
2024/01/14 10:57:37;;;;;;;20.00;10.00;;;;;;;1.52;100.00;98897.00;52238;1261;1096762;-81
2024/01/14 11:00:23;;;;;;;23.10;13.90;;;;;;;1.51;100.00;98897.08;52452;1258;1096558;-81
2024/01/14 11:03:09;;;;;;;16.50;11.50;;;;;;;1.52;100.00;98898.10;52377;1262;1097719;-79
2024/01/14 11:05:55;;;;;;;17.00;11.40;;;;;;;1.52;100.00;98895.96;53191;1259;1097797;-80
2024/01/14 11:08:42;;;;;;;22.60;11.40;;;;;;;1.54;100.00;98894.17;52544;1261;1096886;-81
2024/01/14 11:11:41;;;;;;;22.00;13.20;;;;;;;1.53;100.00;98886.29;52642;1261;1097175;-80
2024/01/14 11:15:03;;;;;;;18.70;12.20;;;;;;;1.53;100.00;98879.72;52645;1260;1097661;-81
2024/01/14 11:18:06;;;;;;;22.70;14.40;;;;;;;1.54;100.00;98880.25;52668;1260;1097338;-80
2024/01/14 11:21:08;;;;;;;22.60;13.60;;;;;;;1.55;100.00;98876.98;52638;1261;1097654;-80
2024/01/14 11:23:54;;;;;;;;;;;;;;;1.54;100.00;98865.80;52881;1260;1097249;-81
2024/01/14 11:26:40;;;;;;;20.10;12.20;;;;;;;1.53;100.00;98867.88;52684;1257;1096800;-80
2024/01/14 11:29:31;;;;;;;27.10;13.90;;;;;;;1.53;100.00;98860.85;52664;1261;1097521;-80
2024/01/14 11:32:20;;;;;;;26.40;14.60;;;;;;;1.55;100.00;98858.46;52581;1258;1098259;-80
2024/01/14 11:35:06;;;;;;;26.20;14.40;;;;;;;1.56;100.00;98853.15;52768;1269;1097577;-80
2024/01/14 11:37:52;;;;;;;21.60;13.40;;;;;;;1.58;100.00;98854.49;52829;1258;1098254;-81
2024/01/14 11:40:38;;;;;;;23.70;13.40;;;;;;;1.57;100.00;98853.80;52658;1258;1097450;-81
2024/01/14 11:43:27;;;;;;;22.00;12.10;;;;;;;1.60;100.00;98856.21;52647;1272;1097012;-81
2024/01/14 11:46:39;;;;;;;19.80;10.70;;;;;;;1.60;100.00;98861.85;52712;1257;1097047;-79
2024/01/14 11:49:31;;;;;;;18.30;11.60;;;;;;;1.62;100.00;98860.74;52739;1261;1096991;-80
2024/01/14 11:52:16;;;;;;;24.10;15.80;;;;;;;1.62;100.00;98858.10;52552;1260;1098321;-80
2024/01/14 11:55:05;;;;;;;24.50;13.70;;;;;;;1.62;100.00;98866.18;52372;1269;1097255;-80
2024/01/14 11:57:53;;;;;;;21.10;12.50;;;;;;;1.63;100.00;98862.23;52250;1264;1096779;-79
2024/01/14 12:00:40;;;;;;;17.50;10.30;;;;;;;1.62;100.00;98861.08;52237;1271;1096720;-78
2024/01/14 12:03:25;;;;;;;16.50;10.50;;;;;;;1.62;100.00;98860.23;52297;1260;1097428;-79
2024/01/14 12:06:11;;;;;;;20.40;11.70;;;;;;;1.63;100.00;98861.68;52268;1267;1096840;-80
2024/01/14 12:09:00;;;;;;;19.30;11.40;;;;;;;1.65;100.00;98862.16;52180;1260;1096781;-80
2024/01/14 12:11:46;;;;;;;17.30;9.60;;;;;;;1.67;100.00;98863.16;52328;1271;1097451;-79
2024/01/14 12:14:37;;;;;;;18.90;10.40;;;;;;;1.69;100.00;98868.20;52301;1260;1097216;-79
2024/01/14 12:17:22;;;;;;;17.00;8.70;;;;;;;1.71;100.00;98863.60;52268;1260;1096561;-80
2024/01/14 12:20:10;;;;;;;16.30;8.40;;;;;;;1.72;100.00;98872.95;52291;1263;1097125;-79
2024/01/14 12:23:41;;;;;;;18.70;9.90;;;;;;;1.73;100.00;98874.46;52198;1260;1096723;-80
2024/01/14 12:26:27;;;;;;;22.60;15.10;;;;;;;1.73;100.00;98879.48;52190;1258;1098059;-79
2024/01/14 12:29:31;;;;;;;27.90;17.20;;;;;;;1.73;100.00;98881.27;52130;1266;1097375;-78
2024/01/14 12:32:34;;;;;;;23.40;13.90;;;;;;;1.73;100.00;98884.94;52382;1259;1097332;-79
2024/01/14 12:35:25;;;;;;;21.80;13.20;;;;;;;1.74;100.00;98888.01;52216;1258;1097060;-79